sensor_id;sensor_type;location;lat;lon;timestamp;P1;durP1;ratioP1;P2;durP2;ratioP2
37559;SDS011;23398;50.928;7.084;2023-01-29T00:01:12;11.63;;;7.47;;
37559;SDS011;23398;50.928;7.084;2023-01-29T00:03:38;12.60;;;8.03;;
37559;SDS011;23398;50.928;7.084;2023-01-29T00:06:04;12.33;;;8.43;;
37559;SDS011;23398;50.928;7.084;2023-01-29T00:08:35;13.33;;;8.50;;
37559;SDS011;23398;50.928;7.084;2023-01-29T00:11:02;12.53;;;8.47;;
37559;SDS011;23398;50.928;7.084;2023-01-29T00:13:28;12.63;;;8.03;;
37559;SDS011;23398;50.928;7.084;2023-01-29T00:15:55;12.20;;;8.20;;
37559;SDS011;23398;50.928;7.084;2023-01-29T00:18:21;12.43;;;8.17;;
37559;SDS011;23398;50.928;7.084;2023-01-29T00:20:47;13.60;;;8.80;;
37559;SDS011;23398;50.928;7.084;2023-01-29T00:23:13;12.00;;;8.57;;
37559;SDS011;23398;50.928;7.084;2023-01-29T00:25:39;14.20;;;8.87;;
37559;SDS011;23398;50.928;7.084;2023-01-29T00:28:05;12.77;;;7.97;;
37559;SDS011;23398;50.928;7.084;2023-01-29T00:30:31;13.40;;;8.73;;
37559;SDS011;23398;50.928;7.084;2023-01-29T00:32:56;13.27;;;8.83;;
37559;SDS011;23398;50.928;7.084;2023-01-29T00:35:22;13.77;;;9.17;;
37559;SDS011;23398;50.928;7.084;2023-01-29T00:37:48;12.60;;;8.23;;
37559;SDS011;23398;50.928;7.084;2023-01-29T00:40:13;12.87;;;8.50;;
37559;SDS011;23398;50.928;7.084;2023-01-29T00:42:39;14.33;;;9.23;;
37559;SDS011;23398;50.928;7.084;2023-01-29T00:45:23;16.17;;;9.23;;
37559;SDS011;23398;50.928;7.084;2023-01-29T00:47:49;13.73;;;9.03;;
37559;SDS011;23398;50.928;7.084;2023-01-29T00:50:14;12.80;;;8.53;;
37559;SDS011;23398;50.928;7.084;2023-01-29T00:52:40;14.40;;;9.13;;
37559;SDS011;23398;50.928;7.084;2023-01-29T00:55:06;16.17;;;9.03;;
37559;SDS011;23398;50.928;7.084;2023-01-29T00:57:34;12.67;;;9.07;;
37559;SDS011;23398;50.928;7.084;2023-01-29T01:00:00;14.03;;;8.57;;
37559;SDS011;23398;50.928;7.084;2023-01-29T01:02:27;14.43;;;8.53;;
37559;SDS011;23398;50.928;7.084;2023-01-29T01:05:12;14.07;;;8.53;;
37559;SDS011;23398;50.928;7.084;2023-01-29T01:07:42;13.43;;;8.30;;
37559;SDS011;23398;50.928;7.084;2023-01-29T01:10:13;13.23;;;8.40;;
37559;SDS011;23398;50.928;7.084;2023-01-29T01:12:52;13.93;;;8.83;;
37559;SDS011;23398;50.928;7.084;2023-01-29T01:15:55;14.33;;;9.50;;
37559;SDS011;23398;50.928;7.084;2023-01-29T01:18:14;16.60;;;10.10;;
37559;SDS011;23398;50.928;7.084;2023-01-29T01:20:40;13.57;;;9.30;;
37559;SDS011;23398;50.928;7.084;2023-01-29T01:23:06;13.73;;;8.87;;
37559;SDS011;23398;50.928;7.084;2023-01-29T01:25:31;15.07;;;9.30;;
37559;SDS011;23398;50.928;7.084;2023-01-29T01:27:58;15.27;;;8.87;;
37559;SDS011;23398;50.928;7.084;2023-01-29T01:30:24;16.57;;;9.57;;
37559;SDS011;23398;50.928;7.084;2023-01-29T01:32:50;16.73;;;10.20;;
37559;SDS011;23398;50.928;7.084;2023-01-29T01:35:16;17.00;;;10.43;;
37559;SDS011;23398;50.928;7.084;2023-01-29T01:37:42;14.57;;;9.53;;
37559;SDS011;23398;50.928;7.084;2023-01-29T01:40:18;16.23;;;9.83;;
37559;SDS011;23398;50.928;7.084;2023-01-29T01:42:49;15.90;;;9.77;;
37559;SDS011;23398;50.928;7.084;2023-01-29T01:45:33;17.53;;;11.00;;
37559;SDS011;23398;50.928;7.084;2023-01-29T01:53:06;18.57;;;11.17;;
37559;SDS011;23398;50.928;7.084;2023-01-29T01:55:34;16.17;;;10.10;;
37559;SDS011;23398;50.928;7.084;2023-01-29T01:58:11;18.43;;;11.33;;
37559;SDS011;23398;50.928;7.084;2023-01-29T02:00:41;18.33;;;11.57;;
37559;SDS011;23398;50.928;7.084;2023-01-29T02:03:06;17.93;;;11.77;;
37559;SDS011;23398;50.928;7.084;2023-01-29T02:05:52;18.97;;;10.87;;
37559;SDS011;23398;50.928;7.084;2023-01-29T02:08:41;17.87;;;11.50;;
37559;SDS011;23398;50.928;7.084;2023-01-29T02:11:35;16.47;;;10.40;;
37559;SDS011;23398;50.928;7.084;2023-01-29T02:14:01;18.47;;;11.30;;
37559;SDS011;23398;50.928;7.084;2023-01-29T02:16:27;17.70;;;10.93;;
37559;SDS011;23398;50.928;7.084;2023-01-29T02:18:53;18.27;;;10.47;;
37559;SDS011;23398;50.928;7.084;2023-01-29T02:21:19;17.10;;;10.43;;
37559;SDS011;23398;50.928;7.084;2023-01-29T02:27:07;15.70;;;9.80;;
37559;SDS011;23398;50.928;7.084;2023-01-29T02:29:57;15.63;;;10.03;;
37559;SDS011;23398;50.928;7.084;2023-01-29T02:45:53;15.23;;;9.73;;
37559;SDS011;23398;50.928;7.084;2023-01-29T02:48:23;16.57;;;10.57;;
37559;SDS011;23398;50.928;7.084;2023-01-29T02:50:58;15.27;;;10.00;;
37559;SDS011;23398;50.928;7.084;2023-01-29T02:53:44;18.10;;;11.07;;
37559;SDS011;23398;50.928;7.084;2023-01-29T02:56:21;17.83;;;10.80;;
37559;SDS011;23398;50.928;7.084;2023-01-29T02:59:19;19.07;;;10.43;;
37559;SDS011;23398;50.928;7.084;2023-01-29T03:01:53;17.23;;;10.60;;
37559;SDS011;23398;50.928;7.084;2023-01-29T03:04:26;16.60;;;10.90;;
37559;SDS011;23398;50.928;7.084;2023-01-29T03:07:02;18.03;;;10.50;;
37559;SDS011;23398;50.928;7.084;2023-01-29T03:09:41;16.07;;;10.13;;
37559;SDS011;23398;50.928;7.084;2023-01-29T03:12:13;17.27;;;10.43;;
37559;SDS011;23398;50.928;7.084;2023-01-29T03:14:53;17.47;;;10.83;;
37559;SDS011;23398;50.928;7.084;2023-01-29T03:17:37;17.53;;;10.53;;
37559;SDS011;23398;50.928;7.084;2023-01-29T03:20:10;17.17;;;10.23;;
37559;SDS011;23398;50.928;7.084;2023-01-29T03:22:40;16.77;;;10.17;;
37559;SDS011;23398;50.928;7.084;2023-01-29T03:25:12;19.03;;;11.47;;
37559;SDS011;23398;50.928;7.084;2023-01-29T03:28:00;20.43;;;10.60;;
37559;SDS011;23398;50.928;7.084;2023-01-29T03:30:51;16.87;;;10.93;;
37559;SDS011;23398;50.928;7.084;2023-01-29T03:33:39;18.73;;;11.07;;
37559;SDS011;23398;50.928;7.084;2023-01-29T03:36:22;16.43;;;9.73;;
37559;SDS011;23398;50.928;7.084;2023-01-29T03:39:03;18.10;;;10.67;;
37559;SDS011;23398;50.928;7.084;2023-01-29T03:41:32;18.43;;;11.33;;
37559;SDS011;23398;50.928;7.084;2023-01-29T03:49:17;17.83;;;11.03;;
37559;SDS011;23398;50.928;7.084;2023-01-29T03:52:14;17.87;;;11.17;;
37559;SDS011;23398;50.928;7.084;2023-01-29T04:00:05;18.27;;;10.80;;
37559;SDS011;23398;50.928;7.084;2023-01-29T04:02:37;18.93;;;10.83;;
37559;SDS011;23398;50.928;7.084;2023-01-29T04:05:17;15.13;;;10.10;;
37559;SDS011;23398;50.928;7.084;2023-01-29T04:07:45;17.57;;;11.00;;
37559;SDS011;23398;50.928;7.084;2023-01-29T04:10:17;17.90;;;10.80;;
37559;SDS011;23398;50.928;7.084;2023-01-29T04:12:47;17.60;;;11.20;;
37559;SDS011;23398;50.928;7.084;2023-01-29T04:15:17;18.73;;;10.80;;
37559;SDS011;23398;50.928;7.084;2023-01-29T04:17:47;17.87;;;10.27;;
37559;SDS011;23398;50.928;7.084;2023-01-29T04:20:15;16.40;;;10.77;;
37559;SDS011;23398;50.928;7.084;2023-01-29T04:22:42;15.73;;;10.60;;
37559;SDS011;23398;50.928;7.084;2023-01-29T04:25:11;18.13;;;11.20;;
37559;SDS011;23398;50.928;7.084;2023-01-29T04:30:18;19.23;;;10.83;;
37559;SDS011;23398;50.928;7.084;2023-01-29T04:33:00;17.20;;;10.83;;
37559;SDS011;23398;50.928;7.084;2023-01-29T04:40:50;18.47;;;11.33;;
37559;SDS011;23398;50.928;7.084;2023-01-29T04:43:44;15.80;;;10.33;;
37559;SDS011;23398;50.928;7.084;2023-01-29T04:49:17;16.10;;;10.87;;
37559;SDS011;23398;50.928;7.084;2023-01-29T04:55:00;19.27;;;10.67;;
37559;SDS011;23398;50.928;7.084;2023-01-29T05:02:54;18.37;;;10.33;;
37559;SDS011;23398;50.928;7.084;2023-01-29T05:05:21;16.10;;;10.60;;
37559;SDS011;23398;50.928;7.084;2023-01-29T05:07:47;17.73;;;10.50;;
37559;SDS011;23398;50.928;7.084;2023-01-29T05:10:14;15.63;;;10.47;;
37559;SDS011;23398;50.928;7.084;2023-01-29T05:12:44;16.30;;;9.80;;
37559;SDS011;23398;50.928;7.084;2023-01-29T05:15:16;15.97;;;10.37;;
37559;SDS011;23398;50.928;7.084;2023-01-29T05:17:46;18.07;;;11.03;;
37559;SDS011;23398;50.928;7.084;2023-01-29T05:20:12;20.87;;;11.70;;
37559;SDS011;23398;50.928;7.084;2023-01-29T05:22:38;18.47;;;11.10;;
37559;SDS011;23398;50.928;7.084;2023-01-29T05:25:11;20.33;;;11.70;;
37559;SDS011;23398;50.928;7.084;2023-01-29T05:27:45;18.27;;;10.60;;
37559;SDS011;23398;50.928;7.084;2023-01-29T05:30:29;19.67;;;10.70;;
37559;SDS011;23398;50.928;7.084;2023-01-29T05:32:55;17.27;;;11.10;;
37559;SDS011;23398;50.928;7.084;2023-01-29T05:35:21;18.73;;;11.10;;
37559;SDS011;23398;50.928;7.084;2023-01-29T05:37:46;17.60;;;11.10;;
37559;SDS011;23398;50.928;7.084;2023-01-29T05:40:12;20.00;;;10.77;;
37559;SDS011;23398;50.928;7.084;2023-01-29T05:42:38;19.40;;;11.10;;
37559;SDS011;23398;50.928;7.084;2023-01-29T05:45:04;19.00;;;11.30;;
37559;SDS011;23398;50.928;7.084;2023-01-29T05:47:29;17.93;;;10.27;;
37559;SDS011;23398;50.928;7.084;2023-01-29T05:49:55;16.80;;;10.43;;
37559;SDS011;23398;50.928;7.084;2023-01-29T05:52:21;19.53;;;11.27;;
37559;SDS011;23398;50.928;7.084;2023-01-29T05:54:46;15.97;;;10.67;;
37559;SDS011;23398;50.928;7.084;2023-01-29T05:57:13;16.20;;;10.33;;
37559;SDS011;23398;50.928;7.084;2023-01-29T05:59:38;18.43;;;10.97;;
37559;SDS011;23398;50.928;7.084;2023-01-29T06:02:04;21.37;;;11.50;;
37559;SDS011;23398;50.928;7.084;2023-01-29T06:04:30;17.77;;;11.53;;
37559;SDS011;23398;50.928;7.084;2023-01-29T06:06:55;18.50;;;10.97;;
37559;SDS011;23398;50.928;7.084;2023-01-29T06:09:21;16.93;;;11.30;;
37559;SDS011;23398;50.928;7.084;2023-01-29T06:11:46;16.13;;;9.53;;
37559;SDS011;23398;50.928;7.084;2023-01-29T06:14:12;16.43;;;10.50;;
37559;SDS011;23398;50.928;7.084;2023-01-29T06:16:37;18.27;;;11.07;;
37559;SDS011;23398;50.928;7.084;2023-01-29T06:19:03;19.20;;;11.60;;
37559;SDS011;23398;50.928;7.084;2023-01-29T06:21:28;20.73;;;12.90;;
37559;SDS011;23398;50.928;7.084;2023-01-29T06:23:54;21.57;;;12.57;;
37559;SDS011;23398;50.928;7.084;2023-01-29T06:26:19;22.67;;;13.43;;
37559;SDS011;23398;50.928;7.084;2023-01-29T06:28:47;22.33;;;13.17;;
37559;SDS011;23398;50.928;7.084;2023-01-29T06:31:13;22.93;;;13.07;;
37559;SDS011;23398;50.928;7.084;2023-01-29T06:33:39;22.83;;;13.27;;
37559;SDS011;23398;50.928;7.084;2023-01-29T06:36:04;18.87;;;11.90;;
37559;SDS011;23398;50.928;7.084;2023-01-29T06:38:30;21.40;;;12.23;;
37559;SDS011;23398;50.928;7.084;2023-01-29T06:40:56;18.37;;;11.40;;
37559;SDS011;23398;50.928;7.084;2023-01-29T06:43:22;21.03;;;12.80;;
37559;SDS011;23398;50.928;7.084;2023-01-29T06:45:49;20.63;;;11.93;;
37559;SDS011;23398;50.928;7.084;2023-01-29T06:48:16;21.93;;;12.60;;
37559;SDS011;23398;50.928;7.084;2023-01-29T06:50:41;18.83;;;11.87;;
37559;SDS011;23398;50.928;7.084;2023-01-29T06:53:07;23.47;;;12.97;;
37559;SDS011;23398;50.928;7.084;2023-01-29T06:55:33;20.70;;;12.27;;
37559;SDS011;23398;50.928;7.084;2023-01-29T06:57:59;21.43;;;12.93;;
37559;SDS011;23398;50.928;7.084;2023-01-29T07:00:28;20.47;;;12.47;;
37559;SDS011;23398;50.928;7.084;2023-01-29T07:02:54;22.20;;;13.33;;
37559;SDS011;23398;50.928;7.084;2023-01-29T07:05:19;21.43;;;12.17;;
37559;SDS011;23398;50.928;7.084;2023-01-29T07:07:45;20.40;;;12.30;;
37559;SDS011;23398;50.928;7.084;2023-01-29T07:10:10;20.33;;;12.07;;
37559;SDS011;23398;50.928;7.084;2023-01-29T07:12:36;20.93;;;12.50;;
37559;SDS011;23398;50.928;7.084;2023-01-29T07:15:02;22.27;;;13.17;;
37559;SDS011;23398;50.928;7.084;2023-01-29T07:17:27;22.60;;;13.23;;
37559;SDS011;23398;50.928;7.084;2023-01-29T07:19:53;24.73;;;14.03;;
37559;SDS011;23398;50.928;7.084;2023-01-29T07:22:19;23.80;;;13.77;;
37559;SDS011;23398;50.928;7.084;2023-01-29T07:24:45;23.63;;;14.10;;
37559;SDS011;23398;50.928;7.084;2023-01-29T07:27:12;24.10;;;13.90;;
37559;SDS011;23398;50.928;7.084;2023-01-29T07:29:37;24.27;;;14.20;;
37559;SDS011;23398;50.928;7.084;2023-01-29T07:32:03;22.23;;;13.87;;
37559;SDS011;23398;50.928;7.084;2023-01-29T07:34:29;22.30;;;13.43;;
37559;SDS011;23398;50.928;7.084;2023-01-29T07:36:55;24.97;;;14.63;;
37559;SDS011;23398;50.928;7.084;2023-01-29T07:39:21;21.47;;;14.07;;
37559;SDS011;23398;50.928;7.084;2023-01-29T07:41:46;23.93;;;14.53;;
37559;SDS011;23398;50.928;7.084;2023-01-29T07:44:12;22.73;;;14.43;;
37559;SDS011;23398;50.928;7.084;2023-01-29T07:46:38;26.23;;;15.33;;
37559;SDS011;23398;50.928;7.084;2023-01-29T07:49:03;24.10;;;14.03;;
37559;SDS011;23398;50.928;7.084;2023-01-29T07:51:29;26.37;;;16.37;;
37559;SDS011;23398;50.928;7.084;2023-01-29T07:53:54;23.20;;;14.73;;
37559;SDS011;23398;50.928;7.084;2023-01-29T07:56:20;25.73;;;15.17;;
37559;SDS011;23398;50.928;7.084;2023-01-29T07:58:45;22.33;;;14.73;;
37559;SDS011;23398;50.928;7.084;2023-01-29T08:01:11;25.10;;;15.27;;
37559;SDS011;23398;50.928;7.084;2023-01-29T08:03:37;25.60;;;14.83;;
37559;SDS011;23398;50.928;7.084;2023-01-29T08:06:03;25.57;;;15.10;;
37559;SDS011;23398;50.928;7.084;2023-01-29T08:08:29;25.97;;;15.93;;
37559;SDS011;23398;50.928;7.084;2023-01-29T08:10:54;23.70;;;15.53;;
37559;SDS011;23398;50.928;7.084;2023-01-29T08:13:20;25.77;;;16.40;;
37559;SDS011;23398;50.928;7.084;2023-01-29T08:15:46;26.13;;;16.67;;
37559;SDS011;23398;50.928;7.084;2023-01-29T08:18:11;27.67;;;15.67;;
37559;SDS011;23398;50.928;7.084;2023-01-29T08:20:38;26.17;;;16.07;;
37559;SDS011;23398;50.928;7.084;2023-01-29T08:23:05;25.27;;;15.33;;
37559;SDS011;23398;50.928;7.084;2023-01-29T08:25:32;26.03;;;17.00;;
37559;SDS011;23398;50.928;7.084;2023-01-29T08:27:58;25.47;;;15.83;;
37559;SDS011;23398;50.928;7.084;2023-01-29T08:30:28;25.87;;;16.77;;
37559;SDS011;23398;50.928;7.084;2023-01-29T08:32:55;24.60;;;16.93;;
37559;SDS011;23398;50.928;7.084;2023-01-29T08:35:21;24.03;;;15.03;;
37559;SDS011;23398;50.928;7.084;2023-01-29T08:37:54;25.57;;;16.40;;
37559;SDS011;23398;50.928;7.084;2023-01-29T08:40:30;25.97;;;15.57;;
37559;SDS011;23398;50.928;7.084;2023-01-29T08:42:59;24.63;;;15.20;;
37559;SDS011;23398;50.928;7.084;2023-01-29T08:45:25;22.53;;;15.50;;
37559;SDS011;23398;50.928;7.084;2023-01-29T08:47:51;24.57;;;16.20;;
37559;SDS011;23398;50.928;7.084;2023-01-29T08:50:17;23.97;;;15.80;;
37559;SDS011;23398;50.928;7.084;2023-01-29T08:52:43;25.83;;;15.57;;
37559;SDS011;23398;50.928;7.084;2023-01-29T08:55:09;24.33;;;15.50;;
37559;SDS011;23398;50.928;7.084;2023-01-29T08:57:36;26.50;;;16.40;;
37559;SDS011;23398;50.928;7.084;2023-01-29T09:00:02;26.13;;;16.60;;
37559;SDS011;23398;50.928;7.084;2023-01-29T09:02:30;26.60;;;16.30;;
37559;SDS011;23398;50.928;7.084;2023-01-29T09:04:55;24.17;;;16.40;;
37559;SDS011;23398;50.928;7.084;2023-01-29T09:07:21;22.00;;;15.33;;
37559;SDS011;23398;50.928;7.084;2023-01-29T09:09:46;23.27;;;15.53;;
37559;SDS011;23398;50.928;7.084;2023-01-29T09:12:12;25.83;;;17.50;;
37559;SDS011;23398;50.928;7.084;2023-01-29T09:14:37;26.27;;;17.00;;
37559;SDS011;23398;50.928;7.084;2023-01-29T09:17:03;25.50;;;16.53;;
37559;SDS011;23398;50.928;7.084;2023-01-29T09:19:29;24.97;;;16.60;;
37559;SDS011;23398;50.928;7.084;2023-01-29T09:21:54;25.17;;;16.43;;
37559;SDS011;23398;50.928;7.084;2023-01-29T09:24:20;25.53;;;16.57;;
37559;SDS011;23398;50.928;7.084;2023-01-29T09:26:45;24.07;;;17.00;;
37559;SDS011;23398;50.928;7.084;2023-01-29T09:29:11;26.93;;;16.77;;
37559;SDS011;23398;50.928;7.084;2023-01-29T09:31:37;26.63;;;17.20;;
37559;SDS011;23398;50.928;7.084;2023-01-29T09:34:02;25.47;;;16.73;;
37559;SDS011;23398;50.928;7.084;2023-01-29T09:36:28;24.73;;;17.07;;
37559;SDS011;23398;50.928;7.084;2023-01-29T09:38:54;24.20;;;16.47;;
37559;SDS011;23398;50.928;7.084;2023-01-29T09:44:17;25.33;;;16.90;;
37559;SDS011;23398;50.928;7.084;2023-01-29T09:46:49;24.73;;;16.90;;
37559;SDS011;23398;50.928;7.084;2023-01-29T09:49:27;26.00;;;17.20;;
37559;SDS011;23398;50.928;7.084;2023-01-29T09:52:04;25.83;;;17.33;;
37559;SDS011;23398;50.928;7.084;2023-01-29T09:54:41;25.87;;;17.70;;
37559;SDS011;23398;50.928;7.084;2023-01-29T09:57:26;23.33;;;16.63;;
37559;SDS011;23398;50.928;7.084;2023-01-29T09:59:58;24.70;;;16.77;;
37559;SDS011;23398;50.928;7.084;2023-01-29T10:05:04;26.57;;;17.67;;
37559;SDS011;23398;50.928;7.084;2023-01-29T10:13:30;25.47;;;17.73;;
37559;SDS011;23398;50.928;7.084;2023-01-29T10:18:40;26.90;;;18.83;;
37559;SDS011;23398;50.928;7.084;2023-01-29T10:23:42;26.77;;;18.57;;
37559;SDS011;23398;50.928;7.084;2023-01-29T10:26:31;24.37;;;17.03;;
37559;SDS011;23398;50.928;7.084;2023-01-29T10:28:59;26.43;;;18.83;;
37559;SDS011;23398;50.928;7.084;2023-01-29T10:31:30;23.90;;;17.17;;
37559;SDS011;23398;50.928;7.084;2023-01-29T10:34:06;25.57;;;17.47;;
37559;SDS011;23398;50.928;7.084;2023-01-29T10:36:45;25.83;;;17.60;;
37559;SDS011;23398;50.928;7.084;2023-01-29T10:41:43;22.73;;;16.57;;
37559;SDS011;23398;50.928;7.084;2023-01-29T10:47:24;21.17;;;15.95;;
37559;SDS011;23398;50.928;7.084;2023-01-29T10:58:29;22.73;;;15.48;;
37559;SDS011;23398;50.928;7.084;2023-01-29T11:01:14;21.57;;;15.53;;
37559;SDS011;23398;50.928;7.084;2023-01-29T11:03:40;22.45;;;16.45;;
37559;SDS011;23398;50.928;7.084;2023-01-29T11:06:10;22.93;;;15.67;;
37559;SDS011;23398;50.928;7.084;2023-01-29T11:11:42;21.60;;;15.60;;
37559;SDS011;23398;50.928;7.084;2023-01-29T11:14:23;23.00;;;16.47;;
37559;SDS011;23398;50.928;7.084;2023-01-29T11:16:52;24.73;;;17.57;;
37559;SDS011;23398;50.928;7.084;2023-01-29T11:19:18;22.80;;;16.63;;
37559;SDS011;23398;50.928;7.084;2023-01-29T11:22:04;22.60;;;16.50;;
37559;SDS011;23398;50.928;7.084;2023-01-29T11:24:30;22.23;;;16.77;;
37559;SDS011;23398;50.928;7.084;2023-01-29T11:26:56;21.27;;;16.67;;
37559;SDS011;23398;50.928;7.084;2023-01-29T11:29:42;22.63;;;16.60;;
37559;SDS011;23398;50.928;7.084;2023-01-29T11:35:01;22.67;;;17.00;;
37559;SDS011;23398;50.928;7.084;2023-01-29T11:37:36;22.17;;;16.25;;
37559;SDS011;23398;50.928;7.084;2023-01-29T11:42:43;21.40;;;16.00;;
37559;SDS011;23398;50.928;7.084;2023-01-29T11:45:26;21.87;;;16.50;;
37559;SDS011;23398;50.928;7.084;2023-01-29T11:47:56;21.07;;;15.73;;
37559;SDS011;23398;50.928;7.084;2023-01-29T11:50:23;22.63;;;16.38;;
37559;SDS011;23398;50.928;7.084;2023-01-29T11:52:51;21.35;;;15.63;;
37559;SDS011;23398;50.928;7.084;2023-01-29T11:55:24;20.17;;;16.43;;
37559;SDS011;23398;50.928;7.084;2023-01-29T12:00:38;19.58;;;14.63;;
37559;SDS011;23398;50.928;7.084;2023-01-29T12:03:15;18.17;;;14.65;;
37559;SDS011;23398;50.928;7.084;2023-01-29T12:06:00;18.20;;;14.32;;
37559;SDS011;23398;50.928;7.084;2023-01-29T12:08:38;18.00;;;14.23;;
37559;SDS011;23398;50.928;7.084;2023-01-29T12:11:07;20.73;;;14.35;;
37559;SDS011;23398;50.928;7.084;2023-01-29T12:13:38;18.60;;;14.40;;
37559;SDS011;23398;50.928;7.084;2023-01-29T12:16:18;18.10;;;14.15;;
37559;SDS011;23398;50.928;7.084;2023-01-29T12:18:54;17.47;;;13.97;;
37559;SDS011;23398;50.928;7.084;2023-01-29T12:21:32;18.27;;;14.57;;
37559;SDS011;23398;50.928;7.084;2023-01-29T12:27:24;18.92;;;14.40;;
37559;SDS011;23398;50.928;7.084;2023-01-29T12:30:03;17.40;;;13.73;;
37559;SDS011;23398;50.928;7.084;2023-01-29T12:35:26;18.13;;;14.03;;
37559;SDS011;23398;50.928;7.084;2023-01-29T12:40:42;17.30;;;13.93;;
37559;SDS011;23398;50.928;7.084;2023-01-29T12:43:15;18.38;;;14.52;;
37559;SDS011;23398;50.928;7.084;2023-01-29T12:45:43;21.58;;;14.35;;
37559;SDS011;23398;50.928;7.084;2023-01-29T12:48:18;20.55;;;14.25;;
37559;SDS011;23398;50.928;7.084;2023-01-29T12:50:50;18.35;;;14.32;;
37559;SDS011;23398;50.928;7.084;2023-01-29T12:56:02;20.98;;;15.00;;
37559;SDS011;23398;50.928;7.084;2023-01-29T12:58:36;21.17;;;15.52;;
37559;SDS011;23398;50.928;7.084;2023-01-29T13:01:14;19.17;;;14.68;;
37559;SDS011;23398;50.928;7.084;2023-01-29T13:04:05;16.13;;;13.50;;
37559;SDS011;23398;50.928;7.084;2023-01-29T13:06:55;18.80;;;13.82;;
37559;SDS011;23398;50.928;7.084;2023-01-29T13:09:40;18.08;;;13.88;;
37559;SDS011;23398;50.928;7.084;2023-01-29T13:12:16;20.50;;;15.90;;
37559;SDS011;23398;50.928;7.084;2023-01-29T13:17:23;19.02;;;14.45;;
37559;SDS011;23398;50.928;7.084;2023-01-29T13:19:56;20.83;;;14.15;;
37559;SDS011;23398;50.928;7.084;2023-01-29T13:22:26;19.35;;;14.23;;
37559;SDS011;23398;50.928;7.084;2023-01-29T13:24:56;18.35;;;13.95;;
37559;SDS011;23398;50.928;7.084;2023-01-29T13:27:25;18.65;;;14.50;;
37559;SDS011;23398;50.928;7.084;2023-01-29T13:29:54;18.98;;;13.88;;
37559;SDS011;23398;50.928;7.084;2023-01-29T13:32:28;19.23;;;15.20;;
37559;SDS011;23398;50.928;7.084;2023-01-29T13:35:05;17.48;;;13.35;;
37559;SDS011;23398;50.928;7.084;2023-01-29T13:37:40;18.63;;;13.97;;
37559;SDS011;23398;50.928;7.084;2023-01-29T13:40:18;18.52;;;14.35;;
37559;SDS011;23398;50.928;7.084;2023-01-29T13:42:52;16.75;;;12.60;;
37559;SDS011;23398;50.928;7.084;2023-01-29T13:45:40;17.95;;;13.68;;
37559;SDS011;23398;50.928;7.084;2023-01-29T13:48:08;19.02;;;14.45;;
37559;SDS011;23398;50.928;7.084;2023-01-29T13:50:58;17.67;;;13.32;;
37559;SDS011;23398;50.928;7.084;2023-01-29T13:53:27;16.95;;;12.70;;
37559;SDS011;23398;50.928;7.084;2023-01-29T13:59:03;19.08;;;13.30;;
37559;SDS011;23398;50.928;7.084;2023-01-29T14:02:16;17.60;;;13.23;;
37559;SDS011;23398;50.928;7.084;2023-01-29T14:04:27;16.90;;;12.70;;
37559;SDS011;23398;50.928;7.084;2023-01-29T14:06:55;17.98;;;13.68;;
37559;SDS011;23398;50.928;7.084;2023-01-29T14:11:56;18.05;;;13.35;;
37559;SDS011;23398;50.928;7.084;2023-01-29T14:17:17;16.92;;;12.63;;
37559;SDS011;23398;50.928;7.084;2023-01-29T14:19:51;16.35;;;12.82;;
37559;SDS011;23398;50.928;7.084;2023-01-29T14:22:20;17.60;;;13.48;;
37559;SDS011;23398;50.928;7.084;2023-01-29T14:25:15;17.38;;;13.48;;
37559;SDS011;23398;50.928;7.084;2023-01-29T14:27:45;18.48;;;13.98;;
37559;SDS011;23398;50.928;7.084;2023-01-29T14:30:12;17.63;;;13.68;;
37559;SDS011;23398;50.928;7.084;2023-01-29T14:32:46;17.33;;;13.60;;
37559;SDS011;23398;50.928;7.084;2023-01-29T14:35:19;17.92;;;13.52;;
37559;SDS011;23398;50.928;7.084;2023-01-29T14:37:52;17.95;;;13.75;;
37559;SDS011;23398;50.928;7.084;2023-01-29T14:40:22;17.83;;;13.93;;
37559;SDS011;23398;50.928;7.084;2023-01-29T14:45:36;20.60;;;14.30;;
37559;SDS011;23398;50.928;7.084;2023-01-29T15:00:54;18.98;;;14.02;;
37559;SDS011;23398;50.928;7.084;2023-01-29T15:05:51;19.13;;;13.77;;
37559;SDS011;23398;50.928;7.084;2023-01-29T15:10:54;19.13;;;13.30;;
37559;SDS011;23398;50.928;7.084;2023-01-29T15:16:33;19.75;;;12.95;;
37559;SDS011;23398;50.928;7.084;2023-01-29T15:19:11;16.40;;;12.15;;
37559;SDS011;23398;50.928;7.084;2023-01-29T15:22:04;16.30;;;12.52;;
37559;SDS011;23398;50.928;7.084;2023-01-29T15:24:33;15.13;;;10.80;;
37559;SDS011;23398;50.928;7.084;2023-01-29T15:27:00;17.02;;;11.93;;
37559;SDS011;23398;50.928;7.084;2023-01-29T15:29:26;17.80;;;12.25;;
37559;SDS011;23398;50.928;7.084;2023-01-29T15:31:53;16.15;;;11.70;;
37559;SDS011;23398;50.928;7.084;2023-01-29T15:34:19;17.13;;;11.30;;
37559;SDS011;23398;50.928;7.084;2023-01-29T15:36:46;16.88;;;11.80;;
37559;SDS011;23398;50.928;7.084;2023-01-29T15:41:42;14.77;;;10.05;;
37559;SDS011;23398;50.928;7.084;2023-01-29T15:44:12;15.25;;;10.50;;
37559;SDS011;23398;50.928;7.084;2023-01-29T15:46:47;13.77;;;10.15;;
37559;SDS011;23398;50.928;7.084;2023-01-29T15:49:23;16.40;;;11.35;;
37559;SDS011;23398;50.928;7.084;2023-01-29T15:51:54;15.85;;;10.93;;
37559;SDS011;23398;50.928;7.084;2023-01-29T15:54:22;15.35;;;10.95;;
37559;SDS011;23398;50.928;7.084;2023-01-29T15:56:50;16.40;;;10.77;;
37559;SDS011;23398;50.928;7.084;2023-01-29T15:59:17;15.70;;;10.18;;
37559;SDS011;23398;50.928;7.084;2023-01-29T16:01:46;14.75;;;9.90;;
37559;SDS011;23398;50.928;7.084;2023-01-29T16:04:14;13.82;;;10.07;;
37559;SDS011;23398;50.928;7.084;2023-01-29T16:06:44;13.65;;;9.68;;
37559;SDS011;23398;50.928;7.084;2023-01-29T16:09:16;14.18;;;9.48;;
37559;SDS011;23398;50.928;7.084;2023-01-29T16:11:44;11.00;;;8.10;;
37559;SDS011;23398;50.928;7.084;2023-01-29T16:14:14;12.30;;;8.10;;
37559;SDS011;23398;50.928;7.084;2023-01-29T16:16:44;9.30;;;7.15;;
37559;SDS011;23398;50.928;7.084;2023-01-29T16:19:22;10.20;;;7.05;;
37559;SDS011;23398;50.928;7.084;2023-01-29T16:22:08;7.90;;;5.87;;
37559;SDS011;23398;50.928;7.084;2023-01-29T16:24:34;8.45;;;6.07;;
37559;SDS011;23398;50.928;7.084;2023-01-29T16:27:06;9.65;;;5.53;;
37559;SDS011;23398;50.928;7.084;2023-01-29T16:29:36;6.60;;;5.20;;
37559;SDS011;23398;50.928;7.084;2023-01-29T16:32:02;6.30;;;4.60;;
37559;SDS011;23398;50.928;7.084;2023-01-29T16:34:31;8.20;;;5.60;;
37559;SDS011;23398;50.928;7.084;2023-01-29T16:37:14;7.10;;;4.72;;
37559;SDS011;23398;50.928;7.084;2023-01-29T16:39:42;6.15;;;4.07;;
37559;SDS011;23398;50.928;7.084;2023-01-29T16:44:38;6.53;;;4.40;;
37559;SDS011;23398;50.928;7.084;2023-01-29T16:47:06;6.38;;;4.57;;
37559;SDS011;23398;50.928;7.084;2023-01-29T16:54:51;11.63;;;6.72;;
37559;SDS011;23398;50.928;7.084;2023-01-29T16:57:23;11.82;;;8.05;;
37559;SDS011;23398;50.928;7.084;2023-01-29T16:59:53;11.82;;;7.65;;
37559;SDS011;23398;50.928;7.084;2023-01-29T17:02:22;11.85;;;8.00;;
37559;SDS011;23398;50.928;7.084;2023-01-29T17:04:58;12.07;;;8.05;;
37559;SDS011;23398;50.928;7.084;2023-01-29T17:07:27;12.35;;;8.55;;
37559;SDS011;23398;50.928;7.084;2023-01-29T17:09:54;13.65;;;8.40;;
37559;SDS011;23398;50.928;7.084;2023-01-29T17:12:24;14.68;;;9.82;;
37559;SDS011;23398;50.928;7.084;2023-01-29T17:14:52;15.45;;;10.10;;